createdAt,value
2019-01-06T00:01:17.041Z,1.33
2019-01-06T00:03:49.457Z,1.30
2019-01-06T00:06:18.582Z,1.00
2019-01-06T00:08:47.827Z,1.47
2019-01-06T00:11:13.195Z,1.00
2019-01-06T00:13:53.248Z,1.23
2019-01-06T00:16:16.904Z,9.20
2019-01-06T00:18:49.024Z,7.27
2019-01-06T00:21:12.688Z,12.63
2019-01-06T00:23:41.695Z,39.17
2019-01-06T00:26:13.782Z,27.40
2019-01-06T00:28:39.457Z,32.57
2019-01-06T00:31:03.409Z,11.80
2019-01-06T00:33:26.938Z,7.60
2019-01-06T00:35:48.879Z,12.40
2019-01-06T00:38:10.764Z,4.60
2019-01-06T00:40:48.291Z,4.50
2019-01-06T00:43:19.465Z,9.40
2019-01-06T00:45:52.686Z,2.90
2019-01-06T00:48:20.945Z,3.03
2019-01-06T00:50:59.290Z,4.17
2019-01-06T00:53:23.212Z,2.37
2019-01-06T00:55:45.205Z,2.10
2019-01-06T00:58:12.407Z,2.03
2019-01-06T01:00:50.418Z,3.17
2019-01-06T01:03:22.713Z,2.00
2019-01-06T01:05:47.524Z,4.17
2019-01-06T01:08:25.005Z,2.50
2019-01-06T01:10:55.837Z,1.53
2019-01-06T01:13:23.789Z,3.03
2019-01-06T01:15:54.091Z,2.33
2019-01-06T01:18:29.194Z,1.73
2019-01-06T01:21:01.222Z,2.37
2019-01-06T01:23:16.602Z,2.40
2019-01-06T01:25:44.006Z,1.73
2019-01-06T01:28:18.924Z,1.90
2019-01-06T01:30:43.396Z,1.60
2019-01-06T01:33:06.450Z,1.47
2019-01-06T01:35:30.433Z,1.43
2019-01-06T01:38:08.944Z,1.70
2019-01-06T01:40:36.180Z,1.30
2019-01-06T01:42:59.139Z,1.60
2019-01-06T01:45:25.847Z,2.23
2019-01-06T01:48:07.075Z,1.60
2019-01-06T01:50:48.220Z,1.30
2019-01-06T01:53:11.443Z,3.00
2019-01-06T01:55:46.827Z,2.43
2019-01-06T01:58:12.515Z,1.60
2019-01-06T02:00:45.453Z,1.50
2019-01-06T02:03:19.259Z,1.80
2019-01-06T02:06:05.936Z,1.30
2019-01-06T02:08:26.267Z,24.03
2019-01-06T02:10:42.659Z,309.93
2019-01-06T02:13:04.867Z,411.53
2019-01-06T02:15:27.999Z,119.57
2019-01-06T02:17:50.902Z,15.77
2019-01-06T02:20:15.995Z,3.40
2019-01-06T02:22:48.220Z,1.63
2019-01-06T02:25:27.967Z,1.70
2019-01-06T02:27:52.987Z,1.70
2019-01-06T02:30:22.813Z,1.40
2019-01-06T02:32:44.484Z,1.60
2019-01-06T02:35:06.724Z,1.40
2019-01-06T02:37:32.376Z,1.23
2019-01-06T02:39:56.540Z,1.30
2019-01-06T02:42:19.857Z,0.90
2019-01-06T02:44:48.602Z,1.20
2019-01-06T02:47:27.114Z,1.50
2019-01-06T02:49:50.596Z,0.90
2019-01-06T02:52:16.835Z,1.20
2019-01-06T02:54:39.139Z,1.70
2019-01-06T02:57:11.584Z,1.30
2019-01-06T02:59:34.485Z,1.17
2019-01-06T03:02:01.811Z,1.23
2019-01-06T03:04:24.866Z,1.70
2019-01-06T03:06:46.477Z,1.50
2019-01-06T03:09:09.254Z,3.93
2019-01-06T03:11:34.740Z,9.10
2019-01-06T03:13:56.757Z,2.90
2019-01-06T03:16:36.164Z,1.77
2019-01-06T03:18:57.886Z,1.70
2019-01-06T03:21:21.685Z,1.57
2019-01-06T03:24:00.446Z,1.60
2019-01-06T03:26:24.525Z,6.87
2019-01-06T03:28:57.401Z,6.70
2019-01-06T03:31:24.010Z,1.70
2019-01-06T03:33:45.460Z,5.27
2019-01-06T03:36:09.114Z,1.97
2019-01-06T03:38:32.140Z,2.30
2019-01-06T03:40:54.006Z,3.50
2019-01-06T03:43:32.637Z,2.43
2019-01-06T03:45:55.791Z,1.90
2019-01-06T03:48:25.316Z,17.43
2019-01-06T03:51:08.046Z,85.17
2019-01-06T03:53:45.263Z,5.20
2019-01-06T03:56:23.629Z,2.67
2019-01-06T03:58:45.512Z,2.17
2019-01-06T04:01:08.996Z,1.77
2019-01-06T04:03:36.724Z,2.10
2019-01-06T04:06:05.889Z,1.70
2019-01-06T04:08:29.261Z,1.90
2019-01-06T04:10:55.512Z,1.63
2019-01-06T04:13:19.578Z,1.80
2019-01-06T04:15:43.640Z,1.63
2019-01-06T04:18:09.590Z,1.43
2019-01-06T04:20:42.502Z,1.43
2019-01-06T04:23:04.438Z,1.33
2019-01-06T04:25:28.322Z,1.67
2019-01-06T04:28:05.010Z,1.83
2019-01-06T04:30:31.560Z,1.60
2019-01-06T04:33:01.768Z,1.60
2019-01-06T04:35:43.853Z,1.67
2019-01-06T04:38:10.254Z,1.70
2019-01-06T04:40:33.804Z,1.80
2019-01-06T04:42:59.803Z,1.97
2019-01-06T04:45:22.651Z,1.83
2019-01-06T04:47:48.155Z,2.00
2019-01-06T04:50:09.910Z,1.60
2019-01-06T04:52:33.060Z,1.73
2019-01-06T04:54:57.889Z,1.70
2019-01-06T04:57:38.914Z,1.80
2019-01-06T05:00:00.466Z,1.40
2019-01-06T05:02:22.997Z,2.00
2019-01-06T05:04:48.868Z,1.70
2019-01-06T05:07:24.825Z,1.73
2019-01-06T05:09:54.354Z,2.13
2019-01-06T05:12:16.276Z,1.60
2019-01-06T05:14:51.457Z,1.70
2019-01-06T05:17:27.399Z,1.60
2019-01-06T05:19:49.655Z,1.80
2019-01-06T05:22:13.500Z,1.80
2019-01-06T05:24:34.925Z,1.60
2019-01-06T05:27:10.138Z,1.90
2019-01-06T05:29:33.310Z,1.53
2019-01-06T05:31:55.472Z,1.50
2019-01-06T05:34:20.492Z,1.43
2019-01-06T05:36:42.341Z,1.50
2019-01-06T05:39:13.552Z,1.53
2019-01-06T05:41:45.510Z,1.80
2019-01-06T05:44:23.616Z,1.73
2019-01-06T05:46:56.254Z,1.80
2019-01-06T05:49:21.736Z,1.53
2019-01-06T05:51:54.502Z,1.60
2019-01-06T05:54:21.679Z,1.60
2019-01-06T05:56:43.099Z,1.53
2019-01-06T05:59:04.453Z,1.97
2019-01-06T06:01:47.212Z,1.57
2019-01-06T06:04:05.556Z,1.50
2019-01-06T06:06:23.518Z,1.70
2019-01-06T06:08:49.628Z,1.60
2019-01-06T06:11:16.554Z,1.80
2019-01-06T06:13:39.146Z,1.50
2019-01-06T06:16:14.455Z,1.70
2019-01-06T06:18:47.822Z,1.70
2019-01-06T06:21:16.680Z,1.73
2019-01-06T06:23:38.516Z,1.77
2019-01-06T06:26:00.160Z,1.90
2019-01-06T06:28:26.538Z,1.70
2019-01-06T06:31:02.777Z,1.83
2019-01-06T06:33:43.864Z,2.03
2019-01-06T06:36:16.274Z,1.37
2019-01-06T06:38:42.105Z,1.70
2019-01-06T06:41:04.266Z,1.90
2019-01-06T06:43:21.014Z,1.87
2019-01-06T06:45:50.752Z,1.83
2019-01-06T06:48:12.966Z,1.70
2019-01-06T06:50:54.548Z,1.93
2019-01-06T06:53:26.653Z,2.07
2019-01-06T06:55:48.599Z,1.83
2019-01-06T06:58:30.315Z,1.63
2019-01-06T07:01:00.567Z,1.90
2019-01-06T07:03:42.585Z,1.60
2019-01-06T07:06:06.690Z,2.27
2019-01-06T07:08:32.628Z,1.90
2019-01-06T07:11:03.452Z,1.60
2019-01-06T07:13:26.554Z,1.80
2019-01-06T07:15:55.731Z,2.10
2019-01-06T07:18:29.220Z,1.90
2019-01-06T07:20:52.280Z,1.90
2019-01-06T07:23:25.408Z,1.87
2019-01-06T07:25:58.879Z,1.90
2019-01-06T07:28:23.490Z,1.33
2019-01-06T07:30:49.954Z,1.50
2019-01-06T07:33:12.106Z,1.60
2019-01-06T07:35:39.649Z,1.70
2019-01-06T07:38:06.493Z,1.70
2019-01-06T07:40:30.130Z,1.60
2019-01-06T07:42:52.483Z,1.90
2019-01-06T07:45:22.541Z,1.83
2019-01-06T07:47:51.005Z,1.80
2019-01-06T07:50:13.156Z,1.57
2019-01-06T07:52:40.320Z,1.77
2019-01-06T07:54:52.684Z,1.73
2019-01-06T07:57:16.371Z,1.77
2019-01-06T07:59:32.396Z,1.40
2019-01-06T08:01:50.145Z,1.93
2019-01-06T08:04:11.741Z,1.90
2019-01-06T08:06:34.999Z,1.47
2019-01-06T08:08:56.535Z,1.80
2019-01-06T08:11:17.909Z,1.80
2019-01-06T08:14:08.165Z,1.97
2019-01-06T08:16:38.405Z,1.60
2019-01-06T08:19:03.043Z,1.80
2019-01-06T08:21:25.246Z,1.87
2019-01-06T08:23:49.094Z,1.90
2019-01-06T08:26:13.885Z,1.87
2019-01-06T08:28:41.404Z,1.80
2019-01-06T08:31:16.353Z,1.73
2019-01-06T08:33:48.561Z,1.60
2019-01-06T08:36:15.283Z,1.63
2019-01-06T08:38:36.803Z,1.70
2019-01-06T08:41:06.372Z,1.30
2019-01-06T08:43:32.001Z,1.93
2019-01-06T08:45:53.925Z,1.50
2019-01-06T08:48:16.041Z,1.70
2019-01-06T08:50:46.275Z,1.87
2019-01-06T08:53:15.672Z,1.60
2019-01-06T08:55:37.077Z,1.27
2019-01-06T08:58:01.142Z,1.80
2019-01-06T09:00:28.637Z,1.40
2019-01-06T09:02:54.823Z,1.40
2019-01-06T09:05:31.758Z,1.80
2019-01-06T09:08:00.320Z,1.40
2019-01-06T09:10:31.465Z,1.57
2019-01-06T09:12:57.499Z,1.40
2019-01-06T09:15:37.861Z,1.80
2019-01-06T09:18:22.992Z,1.33
2019-01-06T09:20:44.680Z,1.47
2019-01-06T09:26:12.371Z,1.23
2019-01-06T09:28:47.786Z,21.63
2019-01-06T09:31:24.373Z,138.93
2019-01-06T09:33:49.838Z,476.37
2019-01-06T09:36:21.763Z,486.27
2019-01-06T09:38:42.519Z,112.57
2019-01-06T09:41:06.858Z,11.47
2019-01-06T09:43:29.567Z,3.90
2019-01-06T09:45:49.551Z,3.00
2019-01-06T09:48:16.769Z,2.57
2019-01-06T09:50:39.872Z,3.20
2019-01-06T09:53:08.494Z,28.97
2019-01-06T09:55:45.011Z,626.53
2019-01-06T09:58:03.286Z,230.07
2019-01-06T10:00:25.972Z,538.67
2019-01-06T10:02:51.554Z,40.83
2019-01-06T10:05:27.595Z,14.13
2019-01-06T10:07:50.653Z,6.33
2019-01-06T10:10:12.775Z,5.67
2019-01-06T10:12:48.638Z,4.57
2019-01-06T10:15:27.110Z,4.40
2019-01-06T10:17:58.274Z,4.40
2019-01-06T10:20:30.834Z,3.60
2019-01-06T10:22:56.574Z,5.00
2019-01-06T10:25:18.506Z,3.50
2019-01-06T10:28:02.725Z,3.70
2019-01-06T10:30:31.019Z,4.00
2019-01-06T10:32:53.829Z,3.50
2019-01-06T10:35:21.033Z,3.63
2019-01-06T10:37:46.571Z,4.03
2019-01-06T10:40:10.366Z,2.90
2019-01-06T10:42:37.026Z,3.77
2019-01-06T10:45:07.698Z,3.40
2019-01-06T10:47:45.895Z,2.90
2019-01-06T10:50:32.814Z,3.30
2019-01-06T10:52:56.198Z,2.80
2019-01-06T10:55:24.266Z,3.60
2019-01-06T10:57:57.139Z,2.90
2019-01-06T11:00:42.413Z,3.00
2019-01-06T11:03:04.257Z,3.20
2019-01-06T11:05:41.805Z,3.43
2019-01-06T11:08:23.928Z,3.67
2019-01-06T11:11:06.099Z,2.60
2019-01-06T11:13:42.732Z,3.47
2019-01-06T11:16:21.110Z,3.03
2019-01-06T11:18:46.738Z,3.07
2019-01-06T11:21:11.849Z,3.40
2019-01-06T11:23:58.947Z,3.40
2019-01-06T11:26:31.923Z,3.10
2019-01-06T11:29:14.252Z,3.00
2019-01-06T11:31:40.936Z,2.77
2019-01-06T11:34:13.297Z,3.00
2019-01-06T11:36:29.485Z,2.57
2019-01-06T11:38:58.173Z,2.20
2019-01-06T11:41:35.735Z,2.60
2019-01-06T11:44:11.675Z,2.33
2019-01-06T11:46:35.674Z,2.73
2019-01-06T11:49:18.010Z,2.87
2019-01-06T11:51:44.828Z,2.17
2019-01-06T11:54:10.556Z,2.40
2019-01-06T11:56:44.197Z,2.60
2019-01-06T11:59:04.673Z,187.77
2019-01-06T12:01:48.301Z,444.27
2019-01-06T12:04:16.230Z,276.87
2019-01-06T12:06:51.785Z,661.27
2019-01-06T12:09:25.252Z,82.27
2019-01-06T12:12:09.447Z,17.03
2019-01-06T12:14:57.474Z,5.60
2019-01-06T12:20:36.345Z,2.97
2019-01-06T12:23:19.334Z,3.27
2019-01-06T12:25:41.331Z,3.10
2019-01-06T12:28:11.316Z,3.20
2019-01-06T12:30:35.476Z,3.40
2019-01-06T12:32:57.675Z,2.37
2019-01-06T12:35:24.728Z,2.80
2019-01-06T12:37:57.701Z,3.17
2019-01-06T12:40:24.203Z,2.80
2019-01-06T12:42:49.334Z,2.60
2019-01-06T12:45:15.866Z,2.47
2019-01-06T12:47:48.296Z,2.60
2019-01-06T12:50:30.702Z,3.30
2019-01-06T12:52:57.256Z,2.37
2019-01-06T12:55:25.414Z,2.73
2019-01-06T12:57:49.493Z,2.90
2019-01-06T13:00:25.773Z,2.43
2019-01-06T13:02:49.320Z,282.70
2019-01-06T13:05:12.334Z,105.30
2019-01-06T13:07:39.844Z,10.00
2019-01-06T13:10:05.584Z,3.90
2019-01-06T13:12:35.013Z,3.60
2019-01-06T13:15:10.022Z,2.93
2019-01-06T13:17:40.666Z,3.20
2019-01-06T13:20:03.570Z,3.17
2019-01-06T13:22:29.617Z,2.57
2019-01-06T13:25:08.632Z,231.67
2019-01-06T13:27:38.770Z,602.37
2019-01-06T13:30:07.303Z,157.47
2019-01-06T13:32:54.523Z,640.30
2019-01-06T13:35:18.068Z,924.77
2019-01-06T13:37:42.076Z,489.50
2019-01-06T13:40:08.305Z,226.03
2019-01-06T13:42:33.597Z,859.83
2019-01-06T13:45:01.464Z,319.67
2019-01-06T13:47:23.349Z,72.17
2019-01-06T13:50:04.087Z,139.07
2019-01-06T13:52:28.823Z,27.67
2019-01-06T13:54:58.500Z,58.03
2019-01-06T13:57:27.891Z,10.20
2019-01-06T13:59:57.842Z,5.43
2019-01-06T14:02:24.329Z,5.13
2019-01-06T14:05:10.596Z,4.27
2019-01-06T14:07:52.206Z,4.00
2019-01-06T14:10:32.176Z,3.63
2019-01-06T14:12:56.813Z,3.37
2019-01-06T14:15:22.326Z,3.50
2019-01-06T14:17:52.720Z,3.20
2019-01-06T14:20:17.541Z,11.53
2019-01-06T14:22:41.322Z,4.20
2019-01-06T14:25:04.283Z,3.60
2019-01-06T14:27:32.813Z,2.73
2019-01-06T14:30:08.005Z,3.10
2019-01-06T14:32:44.217Z,3.43
2019-01-06T14:35:07.400Z,3.20
2019-01-06T14:37:48.239Z,2.57
2019-01-06T14:40:11.964Z,3.20
2019-01-06T14:42:50.552Z,95.40
2019-01-06T14:45:29.154Z,22.07
2019-01-06T14:48:05.694Z,14.57
2019-01-06T14:50:43.334Z,5.00
2019-01-06T14:53:10.779Z,3.53
2019-01-06T14:55:42.924Z,3.23
2019-01-06T14:58:21.502Z,17.10
2019-01-06T15:01:00.254Z,5.50
2019-01-06T15:03:24.560Z,37.17
2019-01-06T15:05:46.566Z,39.27
2019-01-06T15:08:21.056Z,6.90
2019-01-06T15:10:43.139Z,3.90
2019-01-06T15:13:15.132Z,3.70
2019-01-06T15:15:39.851Z,3.50
2019-01-06T15:18:04.704Z,3.40
2019-01-06T15:20:29.431Z,2.83
2019-01-06T15:22:52.615Z,3.00
2019-01-06T15:25:16.216Z,9.87
2019-01-06T15:27:45.559Z,6.20
2019-01-06T15:30:15.383Z,28.80
2019-01-06T15:32:37.658Z,5.70
2019-01-06T15:35:11.703Z,4.00
2019-01-06T15:37:51.947Z,43.33
2019-01-06T15:40:15.163Z,4.80
2019-01-06T15:42:43.253Z,4.57
2019-01-06T15:45:10.706Z,24.90
2019-01-06T15:47:42.161Z,4.40
2019-01-06T15:50:25.253Z,3.57
2019-01-06T15:52:47.573Z,3.50
2019-01-06T15:55:10.306Z,3.60
2019-01-06T15:57:34.255Z,3.00
2019-01-06T16:00:10.096Z,3.27
2019-01-06T16:02:35.607Z,3.73
2019-01-06T16:05:15.053Z,3.13
2019-01-06T16:07:37.552Z,85.37
2019-01-06T16:10:06.369Z,5.83
2019-01-06T16:12:29.596Z,236.23
2019-01-06T16:14:46.117Z,33.07
2019-01-06T16:17:11.319Z,5.20
2019-01-06T16:19:35.416Z,43.73
2019-01-06T16:22:15.386Z,6.57
2019-01-06T16:24:36.685Z,3.30
2019-01-06T16:27:07.111Z,3.30
2019-01-06T16:29:39.128Z,3.33
2019-01-06T16:32:01.370Z,2.60
2019-01-06T16:34:29.784Z,8.40
2019-01-06T16:36:57.698Z,7.07
2019-01-06T16:39:36.367Z,12.70
2019-01-06T16:42:21.063Z,4.20
2019-01-06T16:44:52.383Z,3.60
2019-01-06T16:47:39.652Z,3.30
2019-01-06T16:50:01.700Z,3.37
2019-01-06T16:52:25.767Z,3.07
2019-01-06T16:54:58.974Z,2.67
2019-01-06T16:57:21.448Z,2.50
2019-01-06T16:59:50.107Z,3.77
2019-01-06T17:02:12.061Z,3.00
2019-01-06T17:04:54.171Z,3.33
2019-01-06T17:07:17.006Z,3.20
2019-01-06T17:09:48.482Z,2.57
2019-01-06T17:12:32.862Z,3.30
2019-01-06T17:15:17.159Z,2.37
2019-01-06T17:17:36.944Z,2.90
2019-01-06T17:20:01.695Z,2.30
2019-01-06T17:22:30.380Z,4.40
2019-01-06T17:24:54.618Z,108.17
2019-01-06T17:27:21.483Z,159.70
2019-01-06T17:29:47.784Z,338.57
2019-01-06T17:32:28.251Z,411.70
2019-01-06T17:35:08.071Z,205.80
2019-01-06T17:37:38.546Z,74.77
2019-01-06T17:40:07.688Z,24.80
2019-01-06T17:42:41.061Z,7.37
2019-01-06T17:45:07.927Z,4.77
2019-01-06T17:47:32.486Z,4.17
2019-01-06T17:50:06.277Z,3.20
2019-01-06T17:52:35.991Z,3.50
2019-01-06T17:54:59.696Z,50.50
2019-01-06T17:57:42.703Z,17.10
2019-01-06T18:00:17.563Z,7.23
2019-01-06T18:02:46.992Z,4.50
2019-01-06T18:05:21.024Z,4.43
2019-01-06T18:07:45.077Z,27.77
2019-01-06T18:10:21.487Z,7.30
2019-01-06T18:12:39.821Z,4.70
2019-01-06T18:15:13.358Z,5.67
2019-01-06T18:18:08.283Z,727.47
2019-01-06T18:20:42.028Z,663.07
2019-01-06T18:23:17.712Z,416.10
2019-01-06T18:25:46.233Z,134.33
2019-01-06T18:28:12.989Z,146.50
2019-01-06T18:30:44.759Z,429.00
2019-01-06T18:33:06.899Z,564.50
2019-01-06T18:35:31.536Z,564.37
2019-01-06T18:38:03.451Z,524.53
2019-01-06T18:40:45.530Z,747.93
2019-01-06T18:43:24.361Z,491.90
2019-01-06T18:45:56.814Z,301.80
2019-01-06T18:48:26.323Z,117.07
2019-01-06T18:50:51.365Z,40.13
2019-01-06T18:53:17.269Z,15.70
2019-01-06T18:55:40.106Z,8.40
2019-01-06T18:58:15.912Z,6.10
2019-01-06T19:00:50.181Z,5.43
2019-01-06T19:03:20.795Z,4.60
2019-01-06T19:05:49.960Z,43.97
2019-01-06T19:08:13.449Z,33.37
2019-01-06T19:10:48.651Z,10.40
2019-01-06T19:13:16.885Z,5.73
2019-01-06T19:15:41.286Z,4.63
2019-01-06T19:18:23.751Z,4.27
2019-01-06T19:20:47.659Z,3.63
2019-01-06T19:23:18.129Z,3.23
2019-01-06T19:25:50.571Z,3.60
2019-01-06T19:28:13.768Z,3.30
2019-01-06T19:30:36.725Z,2.90
2019-01-06T19:33:01.102Z,3.97
2019-01-06T19:35:33.762Z,3.90
2019-01-06T19:38:00.038Z,64.93
2019-01-06T19:40:23.397Z,60.43
2019-01-06T19:42:47.528Z,38.53
2019-01-06T19:45:09.757Z,101.67
2019-01-06T19:47:36.461Z,52.93
2019-01-06T19:50:01.008Z,14.80
2019-01-06T19:52:31.601Z,7.10
2019-01-06T19:55:10.092Z,5.20
2019-01-06T19:57:33.511Z,4.70
2019-01-06T20:00:12.493Z,3.93
2019-01-06T20:02:41.463Z,4.00
2019-01-06T20:05:05.027Z,3.50
2019-01-06T20:07:27.116Z,47.43
2019-01-06T20:10:05.199Z,395.83
2019-01-06T20:12:30.352Z,429.13
2019-01-06T20:14:51.070Z,759.80
2019-01-06T20:17:14.340Z,519.50
2019-01-06T20:19:35.861Z,280.07
2019-01-06T20:22:07.068Z,80.20
2019-01-06T20:24:42.605Z,18.80
2019-01-06T20:27:06.262Z,7.63
2019-01-06T20:29:37.340Z,30.90
2019-01-06T20:32:05.940Z,10.63
2019-01-06T20:34:32.552Z,5.33
2019-01-06T20:36:54.601Z,4.90
2019-01-06T20:39:19.819Z,3.50
2019-01-06T20:41:43.807Z,3.83
2019-01-06T20:44:07.696Z,218.20
2019-01-06T20:46:35.600Z,162.77
2019-01-06T20:48:48.005Z,21.17
2019-01-06T20:51:10.211Z,8.47
2019-01-06T20:53:51.223Z,7.17
2019-01-06T20:56:29.843Z,4.40
2019-01-06T20:58:51.390Z,3.67
2019-01-06T21:01:20.521Z,3.80
2019-01-06T21:03:41.990Z,2.90
2019-01-06T21:06:17.550Z,3.00
2019-01-06T21:08:43.603Z,86.20
2019-01-06T21:11:07.288Z,280.40
2019-01-06T21:13:29.664Z,388.77
2019-01-06T21:15:55.515Z,362.47
2019-01-06T21:18:33.712Z,127.70
2019-01-06T21:21:15.277Z,18.70
2019-01-06T21:23:44.902Z,5.90
2019-01-06T21:26:07.247Z,4.43
2019-01-06T21:28:31.278Z,8.20
2019-01-06T21:31:10.572Z,66.23
2019-01-06T21:33:37.722Z,185.67
2019-01-06T21:36:16.200Z,14.10
2019-01-06T21:38:41.198Z,4.50
2019-01-06T21:41:07.801Z,4.07
2019-01-06T21:43:30.163Z,2.53
2019-01-06T21:45:53.274Z,2.60
2019-01-06T21:48:22.330Z,2.70
2019-01-06T21:50:49.152Z,533.50
2019-01-06T21:53:15.265Z,72.37
2019-01-06T21:55:53.119Z,364.60
2019-01-06T21:58:20.004Z,338.03
2019-01-06T22:00:40.441Z,267.80
2019-01-06T22:03:16.208Z,33.37
2019-01-06T22:05:48.937Z,119.00
2019-01-06T22:08:11.691Z,106.73
2019-01-06T22:10:47.397Z,9.80
2019-01-06T22:13:10.749Z,3.77
2019-01-06T22:15:31.320Z,2.70
2019-01-06T22:17:54.312Z,2.73
2019-01-06T22:20:20.131Z,2.50
2019-01-06T22:22:47.404Z,2.10
2019-01-06T22:25:10.836Z,2.00
2019-01-06T22:27:38.090Z,1.83
2019-01-06T22:30:04.288Z,1.73
2019-01-06T22:32:27.878Z,1.67
2019-01-06T22:35:05.208Z,1.80
2019-01-06T22:37:31.464Z,1.90
2019-01-06T22:39:53.607Z,1.90
2019-01-06T22:42:15.329Z,1.70
2019-01-06T22:44:49.338Z,1.50
2019-01-06T22:47:19.136Z,1.57
2019-01-06T22:49:46.997Z,1.60
2019-01-06T22:52:08.781Z,1.63
2019-01-06T22:54:32.269Z,1.47
2019-01-06T22:56:58.739Z,1.60
2019-01-06T22:59:29.256Z,1.60
2019-01-06T23:01:55.109Z,1.70
2019-01-06T23:04:28.403Z,1.20
2019-01-06T23:06:51.114Z,1.40
2019-01-06T23:09:15.248Z,1.33
2019-01-06T23:11:41.054Z,1.27
2019-01-06T23:14:31.390Z,1.23
2019-01-06T23:16:54.154Z,1.30
2019-01-06T23:19:16.715Z,1.33
2019-01-06T23:21:40.023Z,1.20
2019-01-06T23:24:15.587Z,1.20
2019-01-06T23:26:42.544Z,1.20
2019-01-06T23:29:08.860Z,1.20
2019-01-06T23:31:33.676Z,1.30
2019-01-06T23:33:59.064Z,1.10
2019-01-06T23:36:26.001Z,1.03
2019-01-06T23:38:55.482Z,1.10
2019-01-06T23:41:27.366Z,1.00
2019-01-06T23:43:52.308Z,1.20
2019-01-06T23:46:14.485Z,1.20
2019-01-06T23:48:52.855Z,1.23
2019-01-06T23:51:21.795Z,1.10
2019-01-06T23:53:54.006Z,1.00
2019-01-06T23:56:16.287Z,0.90
2019-01-06T23:58:37.855Z,1.20
